Terminal Aerodrome Forecast
Issued by NWS

Home | Current Version | Previous Version | Text Only | Print | Product List | Glossary On
Versions: 1 2 3 4 5 6 7 8 9 10 11 12 13 14 15
000
FTUS41 KBTV 262323
TAFPBG
TAF
KPBG 262323Z 2700/2724 18004KT P6SM SCT060
     FM270300 00000KT P6SM VCSH BKN080
     FM270700 17005KT P6SM SCT090
     FM271500 18008KT P6SM VCSH SCT090
     FM271700 20008KT 4SM SHRA BR BKN080
     FM272000 20005KT P6SM VCSH BKN070
     FM272300 19005KT P6SM SCT080=

USA.gov is the U.S. government's official web portal to all federal, state and local government web resources and services.